sensor_id;sensor_type;location;lat;lon;timestamp;temperature;humidity
10149;DHT22;5115;50.920;6.376;2022-11-20T00:06:03;5.50;99.90
10149;DHT22;5115;50.920;6.376;2022-11-20T00:25:34;5.90;99.90
10149;DHT22;5115;50.920;6.376;2022-11-20T00:28:00;5.80;99.90
10149;DHT22;5115;50.920;6.376;2022-11-20T00:30:26;5.60;99.90
10149;DHT22;5115;50.920;6.376;2022-11-20T00:40:09;5.60;99.90
10149;DHT22;5115;50.920;6.376;2022-11-20T00:57:11;5.30;99.90
10149;DHT22;5115;50.920;6.376;2022-11-20T01:11:46;5.50;99.90
10149;DHT22;5115;50.920;6.376;2022-11-20T01:14:14;5.60;99.90
10149;DHT22;5115;50.920;6.376;2022-11-20T01:16:49;5.70;99.90
10149;DHT22;5115;50.920;6.376;2022-11-20T01:19:17;5.80;99.90
10149;DHT22;5115;50.920;6.376;2022-11-20T01:21:45;5.70;99.90
10149;DHT22;5115;50.920;6.376;2022-11-20T01:24:13;5.70;99.90
10149;DHT22;5115;50.920;6.376;2022-11-20T01:26:41;5.70;99.90
10149;DHT22;5115;50.920;6.376;2022-11-20T01:29:16;5.80;99.90
10149;DHT22;5115;50.920;6.376;2022-11-20T01:34:16;5.90;99.90
10149;DHT22;5115;50.920;6.376;2022-11-20T01:39:14;5.70;99.90
10149;DHT22;5115;50.920;6.376;2022-11-20T01:41:41;5.70;99.90
10149;DHT22;5115;50.920;6.376;2022-11-20T01:44:58;5.50;99.90
10149;DHT22;5115;50.920;6.376;2022-11-20T01:47:29;5.50;99.90
10149;DHT22;5115;50.920;6.376;2022-11-20T01:49:59;5.40;99.90
10149;DHT22;5115;50.920;6.376;2022-11-20T01:52:33;5.40;99.90
10149;DHT22;5115;50.920;6.376;2022-11-20T01:55:09;5.40;99.90
10149;DHT22;5115;50.920;6.376;2022-11-20T02:00:08;5.40;99.90
10149;DHT22;5115;50.920;6.376;2022-11-20T02:02:35;5.30;99.90
10149;DHT22;5115;50.920;6.376;2022-11-20T02:05:09;5.50;99.90
10149;DHT22;5115;50.920;6.376;2022-11-20T02:07:37;5.80;99.90
10149;DHT22;5115;50.920;6.376;2022-11-20T02:20:06;5.50;99.90
10149;DHT22;5115;50.920;6.376;2022-11-20T02:22:37;5.60;99.90
10149;DHT22;5115;50.920;6.376;2022-11-20T02:25:05;5.60;99.90
10149;DHT22;5115;50.920;6.376;2022-11-20T02:30:02;5.50;99.90
10149;DHT22;5115;50.920;6.376;2022-11-20T02:32:33;5.50;99.90
10149;DHT22;5115;50.920;6.376;2022-11-20T02:35:07;5.60;99.90
10149;DHT22;5115;50.920;6.376;2022-11-20T02:37:37;5.60;99.90
10149;DHT22;5115;50.920;6.376;2022-11-20T02:49:48;5.50;99.90
10149;DHT22;5115;50.920;6.376;2022-11-20T02:54:39;5.60;99.90
10149;DHT22;5115;50.920;6.376;2022-11-20T02:59:30;5.70;99.90
10149;DHT22;5115;50.920;6.376;2022-11-20T03:14:06;5.50;99.90
10149;DHT22;5115;50.920;6.376;2022-11-20T03:16:32;5.50;99.90
10149;DHT22;5115;50.920;6.376;2022-11-20T03:26:19;5.40;99.90
10149;DHT22;5115;50.920;6.376;2022-11-20T03:28:56;5.50;99.90
10149;DHT22;5115;50.920;6.376;2022-11-20T03:31:26;5.50;99.90
10149;DHT22;5115;50.920;6.376;2022-11-20T03:36:19;5.70;99.90
10149;DHT22;5115;50.920;6.376;2022-11-20T03:41:14;5.70;99.90
10149;DHT22;5115;50.920;6.376;2022-11-20T03:46:07;5.70;99.90
10149;DHT22;5115;50.920;6.376;2022-11-20T03:51:16;5.70;99.90
10149;DHT22;5115;50.920;6.376;2022-11-20T03:53:44;5.60;99.90
10149;DHT22;5115;50.920;6.376;2022-11-20T03:56:11;5.70;99.90
10149;DHT22;5115;50.920;6.376;2022-11-20T03:58:38;5.70;99.90
10149;DHT22;5115;50.920;6.376;2022-11-20T04:01:08;5.60;99.90
10149;DHT22;5115;50.920;6.376;2022-11-20T04:03:35;5.60;99.90
10149;DHT22;5115;50.920;6.376;2022-11-20T04:06:06;5.70;99.90
10149;DHT22;5115;50.920;6.376;2022-11-20T04:11:18;5.70;99.90
10149;DHT22;5115;50.920;6.376;2022-11-20T04:13:50;5.70;99.90
10149;DHT22;5115;50.920;6.376;2022-11-20T04:16:16;5.40;99.90
10149;DHT22;5115;50.920;6.376;2022-11-20T04:21:09;5.40;99.90
10149;DHT22;5115;50.920;6.376;2022-11-20T04:23:35;5.40;99.90
10149;DHT22;5115;50.920;6.376;2022-11-20T04:26:08;5.40;99.90
10149;DHT22;5115;50.920;6.376;2022-11-20T04:31:08;5.50;99.90
10149;DHT22;5115;50.920;6.376;2022-11-20T04:33:35;5.60;99.90
10149;DHT22;5115;50.920;6.376;2022-11-20T04:36:03;5.70;99.90
10149;DHT22;5115;50.920;6.376;2022-11-20T04:41:02;5.90;99.90
10149;DHT22;5115;50.920;6.376;2022-11-20T04:45:56;5.90;99.90
10149;DHT22;5115;50.920;6.376;2022-11-20T04:48:22;6.00;99.90
10149;DHT22;5115;50.920;6.376;2022-11-20T05:05:24;6.10;99.90
10149;DHT22;5115;50.920;6.376;2022-11-20T05:12:41;6.00;99.90
10149;DHT22;5115;50.920;6.376;2022-11-20T05:20:00;6.00;99.90
10149;DHT22;5115;50.920;6.376;2022-11-20T05:22:26;6.10;99.90
10149;DHT22;5115;50.920;6.376;2022-11-20T05:27:17;6.00;99.90
10149;DHT22;5115;50.920;6.376;2022-11-20T05:32:08;6.10;99.90
10149;DHT22;5115;50.920;6.376;2022-11-20T05:37:02;6.10;99.90
10149;DHT22;5115;50.920;6.376;2022-11-20T05:44:38;6.00;99.90
10149;DHT22;5115;50.920;6.376;2022-11-20T05:56:47;6.00;99.90
10149;DHT22;5115;50.920;6.376;2022-11-20T06:06:31;6.00;99.90
10149;DHT22;5115;50.920;6.376;2022-11-20T06:08:56;6.00;99.90
10149;DHT22;5115;50.920;6.376;2022-11-20T06:16:18;6.10;99.90
10149;DHT22;5115;50.920;6.376;2022-11-20T06:23:37;6.10;99.90
10149;DHT22;5115;50.920;6.376;2022-11-20T06:26:08;6.10;99.90
10149;DHT22;5115;50.920;6.376;2022-11-20T06:28:35;6.10;99.90
10149;DHT22;5115;50.920;6.376;2022-11-20T06:31:01;6.20;99.90
10149;DHT22;5115;50.920;6.376;2022-11-20T06:33:26;6.10;99.90
10149;DHT22;5115;50.920;6.376;2022-11-20T06:38:18;6.00;99.90
10149;DHT22;5115;50.920;6.376;2022-11-20T06:46:39;5.90;99.90
10149;DHT22;5115;50.920;6.376;2022-11-20T06:49:05;5.70;99.90
10149;DHT22;5115;50.920;6.376;2022-11-20T06:51:31;5.70;99.90
10149;DHT22;5115;50.920;6.376;2022-11-20T06:53:56;5.70;99.90
10149;DHT22;5115;50.920;6.376;2022-11-20T06:56:22;5.70;99.90
10149;DHT22;5115;50.920;6.376;2022-11-20T06:58:47;5.70;99.90
10149;DHT22;5115;50.920;6.376;2022-11-20T07:01:14;5.70;99.90
10149;DHT22;5115;50.920;6.376;2022-11-20T07:03:40;5.70;99.90
10149;DHT22;5115;50.920;6.376;2022-11-20T07:06:06;5.60;99.90
10149;DHT22;5115;50.920;6.376;2022-11-20T07:08:33;5.70;99.90
10149;DHT22;5115;50.920;6.376;2022-11-20T07:11:04;5.70;99.90
10149;DHT22;5115;50.920;6.376;2022-11-20T07:13:30;5.60;99.90
10149;DHT22;5115;50.920;6.376;2022-11-20T07:16:05;5.60;99.90
10149;DHT22;5115;50.920;6.376;2022-11-20T07:18:31;5.60;99.90
10149;DHT22;5115;50.920;6.376;2022-11-20T07:21:00;5.70;99.90
10149;DHT22;5115;50.920;6.376;2022-11-20T07:23:26;5.70;99.90
10149;DHT22;5115;50.920;6.376;2022-11-20T07:25:52;5.80;99.90
10149;DHT22;5115;50.920;6.376;2022-11-20T07:28:17;5.70;99.90
10149;DHT22;5115;50.920;6.376;2022-11-20T07:30:43;5.80;99.90
10149;DHT22;5115;50.920;6.376;2022-11-20T07:33:14;5.80;99.90
10149;DHT22;5115;50.920;6.376;2022-11-20T07:35:39;5.80;99.90
10149;DHT22;5115;50.920;6.376;2022-11-20T07:38:05;5.90;99.90
10149;DHT22;5115;50.920;6.376;2022-11-20T07:40:30;6.00;99.90
10149;DHT22;5115;50.920;6.376;2022-11-20T07:42:56;6.00;99.90
10149;DHT22;5115;50.920;6.376;2022-11-20T07:45:23;5.90;99.90
10149;DHT22;5115;50.920;6.376;2022-11-20T07:47:49;5.90;99.90
10149;DHT22;5115;50.920;6.376;2022-11-20T07:50:15;5.90;99.90
10149;DHT22;5115;50.920;6.376;2022-11-20T07:52:40;6.00;99.90
10149;DHT22;5115;50.920;6.376;2022-11-20T07:55:07;6.10;99.90
10149;DHT22;5115;50.920;6.376;2022-11-20T07:57:33;6.20;99.90
10149;DHT22;5115;50.920;6.376;2022-11-20T07:59:58;6.40;99.90
10149;DHT22;5115;50.920;6.376;2022-11-20T08:02:24;6.60;99.90
10149;DHT22;5115;50.920;6.376;2022-11-20T08:04:50;6.60;99.90
10149;DHT22;5115;50.920;6.376;2022-11-20T08:07:15;6.70;99.90
10149;DHT22;5115;50.920;6.376;2022-11-20T08:09:41;6.70;99.90
10149;DHT22;5115;50.920;6.376;2022-11-20T08:12:06;6.70;99.90
10149;DHT22;5115;50.920;6.376;2022-11-20T08:14:50;6.70;99.90
10149;DHT22;5115;50.920;6.376;2022-11-20T08:17:16;6.60;99.90
10149;DHT22;5115;50.920;6.376;2022-11-20T08:19:41;6.60;99.90
10149;DHT22;5115;50.920;6.376;2022-11-20T08:22:07;6.60;99.90
10149;DHT22;5115;50.920;6.376;2022-11-20T08:24:32;6.40;99.90
10149;DHT22;5115;50.920;6.376;2022-11-20T08:26:58;6.40;99.90
10149;DHT22;5115;50.920;6.376;2022-11-20T08:29:25;6.40;99.90
10149;DHT22;5115;50.920;6.376;2022-11-20T08:31:51;6.40;99.90
10149;DHT22;5115;50.920;6.376;2022-11-20T08:34:17;6.40;99.90
10149;DHT22;5115;50.920;6.376;2022-11-20T08:36:42;6.50;99.90
10149;DHT22;5115;50.920;6.376;2022-11-20T08:39:08;6.40;99.90
10149;DHT22;5115;50.920;6.376;2022-11-20T08:41:36;6.40;99.90
10149;DHT22;5115;50.920;6.376;2022-11-20T08:44:03;6.40;99.90
10149;DHT22;5115;50.920;6.376;2022-11-20T08:46:34;6.40;99.90
10149;DHT22;5115;50.920;6.376;2022-11-20T08:49:02;6.40;99.90
10149;DHT22;5115;50.920;6.376;2022-11-20T08:51:28;6.50;99.90
10149;DHT22;5115;50.920;6.376;2022-11-20T08:53:54;6.50;99.90
10149;DHT22;5115;50.920;6.376;2022-11-20T08:56:19;6.60;99.90
10149;DHT22;5115;50.920;6.376;2022-11-20T08:58:45;6.60;99.90
10149;DHT22;5115;50.920;6.376;2022-11-20T09:01:10;6.60;99.90
10149;DHT22;5115;50.920;6.376;2022-11-20T09:03:36;6.60;99.90
10149;DHT22;5115;50.920;6.376;2022-11-20T09:06:04;6.70;99.90
10149;DHT22;5115;50.920;6.376;2022-11-20T09:08:31;6.70;99.90
10149;DHT22;5115;50.920;6.376;2022-11-20T09:10:57;6.90;99.90
10149;DHT22;5115;50.920;6.376;2022-11-20T09:13:24;7.30;99.90
10149;DHT22;5115;50.920;6.376;2022-11-20T09:16:01;7.60;99.90
10149;DHT22;5115;50.920;6.376;2022-11-20T09:18:28;7.60;99.90
10149;DHT22;5115;50.920;6.376;2022-11-20T09:21:00;7.80;99.90
10149;DHT22;5115;50.920;6.376;2022-11-20T09:23:27;7.80;99.90
10149;DHT22;5115;50.920;6.376;2022-11-20T09:25:55;7.80;99.90
10149;DHT22;5115;50.920;6.376;2022-11-20T09:28:26;7.60;99.90
10149;DHT22;5115;50.920;6.376;2022-11-20T09:30:51;7.50;99.90
10149;DHT22;5115;50.920;6.376;2022-11-20T09:33:17;7.50;99.90
10149;DHT22;5115;50.920;6.376;2022-11-20T09:35:43;7.30;99.90
10149;DHT22;5115;50.920;6.376;2022-11-20T09:38:09;7.30;99.90
10149;DHT22;5115;50.920;6.376;2022-11-20T09:40:38;7.10;99.90
10149;DHT22;5115;50.920;6.376;2022-11-20T09:56:34;6.60;99.90
10149;DHT22;5115;50.920;6.376;2022-11-20T09:59:05;6.60;99.90
10149;DHT22;5115;50.920;6.376;2022-11-20T10:01:34;6.60;99.90
10149;DHT22;5115;50.920;6.376;2022-11-20T10:04:03;6.70;99.90
10149;DHT22;5115;50.920;6.376;2022-11-20T10:09:31;6.80;99.90
10149;DHT22;5115;50.920;6.376;2022-11-20T10:14:41;6.70;99.90
10149;DHT22;5115;50.920;6.376;2022-11-20T10:20:18;6.40;99.90
10149;DHT22;5115;50.920;6.376;2022-11-20T10:23:04;6.40;99.90
10149;DHT22;5115;50.920;6.376;2022-11-20T10:25:40;6.50;99.90
10149;DHT22;5115;50.920;6.376;2022-11-20T10:31:24;6.80;99.90
10149;DHT22;5115;50.920;6.376;2022-11-20T10:33:52;6.80;99.90
10149;DHT22;5115;50.920;6.376;2022-11-20T10:36:33;6.80;99.90
10149;DHT22;5115;50.920;6.376;2022-11-20T10:41:41;6.80;99.90
10149;DHT22;5115;50.920;6.376;2022-11-20T10:44:27;6.80;99.90
10149;DHT22;5115;50.920;6.376;2022-11-20T10:47:14;6.90;99.90
10149;DHT22;5115;50.920;6.376;2022-11-20T10:49:42;6.80;99.90
10149;DHT22;5115;50.920;6.376;2022-11-20T10:58:28;6.80;99.90
10149;DHT22;5115;50.920;6.376;2022-11-20T11:01:11;6.80;99.90
10149;DHT22;5115;50.920;6.376;2022-11-20T11:03:39;6.70;99.90
10149;DHT22;5115;50.920;6.376;2022-11-20T11:08:36;6.70;99.90
10149;DHT22;5115;50.920;6.376;2022-11-20T11:11:21;6.90;99.90
10149;DHT22;5115;50.920;6.376;2022-11-20T11:13:48;7.00;99.90
10149;DHT22;5115;50.920;6.376;2022-11-20T11:16:25;7.00;99.90
10149;DHT22;5115;50.920;6.376;2022-11-20T11:18:51;7.00;99.90
10149;DHT22;5115;50.920;6.376;2022-11-20T11:21:24;7.00;99.90
10149;DHT22;5115;50.920;6.376;2022-11-20T11:23:59;6.70;99.90
10149;DHT22;5115;50.920;6.376;2022-11-20T11:26:25;6.60;99.90
10149;DHT22;5115;50.920;6.376;2022-11-20T11:29:03;6.60;99.90
10149;DHT22;5115;50.920;6.376;2022-11-20T11:31:30;6.70;99.90
10149;DHT22;5115;50.920;6.376;2022-11-20T11:34:07;6.60;99.90
10149;DHT22;5115;50.920;6.376;2022-11-20T11:36:34;6.60;99.90
10149;DHT22;5115;50.920;6.376;2022-11-20T11:39:00;6.70;99.90
10149;DHT22;5115;50.920;6.376;2022-11-20T11:41:30;6.70;99.90
10149;DHT22;5115;50.920;6.376;2022-11-20T11:44:02;6.90;99.90
10149;DHT22;5115;50.920;6.376;2022-11-20T11:46:56;6.60;99.90
10149;DHT22;5115;50.920;6.376;2022-11-20T11:49:22;6.70;99.90
10149;DHT22;5115;50.920;6.376;2022-11-20T12:00:17;6.70;99.90
10149;DHT22;5115;50.920;6.376;2022-11-20T12:05:18;6.80;99.90
10149;DHT22;5115;50.920;6.376;2022-11-20T12:10:53;6.90;99.90
10149;DHT22;5115;50.920;6.376;2022-11-20T12:15:59;7.10;99.90
10149;DHT22;5115;50.920;6.376;2022-11-20T12:18:25;7.10;99.90
10149;DHT22;5115;50.920;6.376;2022-11-20T12:43:37;6.90;99.90
10149;DHT22;5115;50.920;6.376;2022-11-20T12:46:47;6.90;99.90
10149;DHT22;5115;50.920;6.376;2022-11-20T12:49:46;7.00;99.90
10149;DHT22;5115;50.920;6.376;2022-11-20T12:52:35;7.00;99.90
10149;DHT22;5115;50.920;6.376;2022-11-20T12:55:23;7.10;99.90
10149;DHT22;5115;50.920;6.376;2022-11-20T13:00:22;7.10;99.90
10149;DHT22;5115;50.920;6.376;2022-11-20T13:03:06;6.90;99.90
10149;DHT22;5115;50.920;6.376;2022-11-20T13:08:36;7.10;99.90
10149;DHT22;5115;50.920;6.376;2022-11-20T13:11:09;7.00;99.90
10149;DHT22;5115;50.920;6.376;2022-11-20T13:16:38;7.00;99.90
10149;DHT22;5115;50.920;6.376;2022-11-20T13:19:12;5.80;99.90
10149;DHT22;5115;50.920;6.376;2022-11-20T13:21:44;7.30;99.90
10149;DHT22;5115;50.920;6.376;2022-11-20T13:24:27;7.30;99.90
10149;DHT22;5115;50.920;6.376;2022-11-20T13:27:03;7.30;99.90
10149;DHT22;5115;50.920;6.376;2022-11-20T13:29:29;7.10;99.90
10149;DHT22;5115;50.920;6.376;2022-11-20T13:32:16;7.20;99.90
10149;DHT22;5115;50.920;6.376;2022-11-20T13:34:53;7.20;99.90
10149;DHT22;5115;50.920;6.376;2022-11-20T13:37:36;7.20;99.90
10149;DHT22;5115;50.920;6.376;2022-11-20T13:42:46;7.20;99.90
10149;DHT22;5115;50.920;6.376;2022-11-20T13:45:30;7.40;99.90
10149;DHT22;5115;50.920;6.376;2022-11-20T13:47:58;7.30;99.90
10149;DHT22;5115;50.920;6.376;2022-11-20T13:50:44;7.40;99.90
10149;DHT22;5115;50.920;6.376;2022-11-20T13:56:50;7.40;99.90
10149;DHT22;5115;50.920;6.376;2022-11-20T13:59:24;7.30;99.90
10149;DHT22;5115;50.920;6.376;2022-11-20T14:01:55;7.20;99.90
10149;DHT22;5115;50.920;6.376;2022-11-20T14:04:30;7.20;99.90
10149;DHT22;5115;50.920;6.376;2022-11-20T14:06:58;7.20;99.90
10149;DHT22;5115;50.920;6.376;2022-11-20T14:09:31;7.20;99.90
10149;DHT22;5115;50.920;6.376;2022-11-20T14:11:57;7.30;99.90
10149;DHT22;5115;50.920;6.376;2022-11-20T14:14:30;7.30;99.90
10149;DHT22;5115;50.920;6.376;2022-11-20T14:19:43;7.10;99.90
10149;DHT22;5115;50.920;6.376;2022-11-20T14:22:23;7.00;99.90
10149;DHT22;5115;50.920;6.376;2022-11-20T14:25:18;7.20;99.90
10149;DHT22;5115;50.920;6.376;2022-11-20T14:27:59;7.10;99.90
10149;DHT22;5115;50.920;6.376;2022-11-20T14:30:37;10.90;99.90
10149;DHT22;5115;50.920;6.376;2022-11-20T14:33:04;7.10;99.90
10149;DHT22;5115;50.920;6.376;2022-11-20T14:35:33;7.20;99.90
10149;DHT22;5115;50.920;6.376;2022-11-20T14:38:01;7.20;99.90
10149;DHT22;5115;50.920;6.376;2022-11-20T14:40:29;7.10;99.90
10149;DHT22;5115;50.920;6.376;2022-11-20T14:42:56;7.20;99.90
10149;DHT22;5115;50.920;6.376;2022-11-20T14:45:23;7.20;99.90
10149;DHT22;5115;50.920;6.376;2022-11-20T14:47:51;7.20;99.90
10149;DHT22;5115;50.920;6.376;2022-11-20T14:50:23;7.20;99.90
10149;DHT22;5115;50.920;6.376;2022-11-20T14:53:00;7.20;99.90
10149;DHT22;5115;50.920;6.376;2022-11-20T14:57:58;7.30;99.90
10149;DHT22;5115;50.920;6.376;2022-11-20T15:00:24;7.40;99.90
10149;DHT22;5115;50.920;6.376;2022-11-20T15:02:51;7.40;99.90
10149;DHT22;5115;50.920;6.376;2022-11-20T15:05:47;9.00;99.90
10149;DHT22;5115;50.920;6.376;2022-11-20T15:08:17;7.50;99.90
10149;DHT22;5115;50.920;6.376;2022-11-20T15:10:47;7.50;99.90
10149;DHT22;5115;50.920;6.376;2022-11-20T15:13:32;7.50;99.90
10149;DHT22;5115;50.920;6.376;2022-11-20T15:16:00;7.60;99.90
10149;DHT22;5115;50.920;6.376;2022-11-20T15:18:32;6.00;99.90
10149;DHT22;5115;50.920;6.376;2022-11-20T15:21:11;7.40;99.90
10149;DHT22;5115;50.920;6.376;2022-11-20T15:26:09;7.40;99.90
10149;DHT22;5115;50.920;6.376;2022-11-20T15:28:55;7.40;99.90
10149;DHT22;5115;50.920;6.376;2022-11-20T15:31:41;8.10;99.90
10149;DHT22;5115;50.920;6.376;2022-11-20T15:34:13;7.30;99.90
10149;DHT22;5115;50.920;6.376;2022-11-20T15:36:40;7.50;99.90
10149;DHT22;5115;50.920;6.376;2022-11-20T15:39:06;7.40;99.90
10149;DHT22;5115;50.920;6.376;2022-11-20T15:41:43;7.40;99.90
10149;DHT22;5115;50.920;6.376;2022-11-20T15:46:37;7.50;99.90
10149;DHT22;5115;50.920;6.376;2022-11-20T15:49:05;7.50;99.90
10149;DHT22;5115;50.920;6.376;2022-11-20T15:51:37;7.60;99.90
10149;DHT22;5115;50.920;6.376;2022-11-20T15:54:19;7.10;99.90
10149;DHT22;5115;50.920;6.376;2022-11-20T15:56:50;7.50;99.90
10149;DHT22;5115;50.920;6.376;2022-11-20T15:59:19;7.40;99.90
10149;DHT22;5115;50.920;6.376;2022-11-20T16:01:44;7.60;99.90
10149;DHT22;5115;50.920;6.376;2022-11-20T16:04:15;7.60;99.90
10149;DHT22;5115;50.920;6.376;2022-11-20T16:06:42;7.50;99.90
10149;DHT22;5115;50.920;6.376;2022-11-20T16:09:08;7.50;99.90
10149;DHT22;5115;50.920;6.376;2022-11-20T16:11:34;8.30;99.90
10149;DHT22;5115;50.920;6.376;2022-11-20T16:14:02;8.80;99.90
10149;DHT22;5115;50.920;6.376;2022-11-20T16:16:46;8.70;99.90
10149;DHT22;5115;50.920;6.376;2022-11-20T16:19:13;7.50;99.90
10149;DHT22;5115;50.920;6.376;2022-11-20T16:21:39;7.90;99.90
10149;DHT22;5115;50.920;6.376;2022-11-20T16:24:08;7.40;99.90
10149;DHT22;5115;50.920;6.376;2022-11-20T16:26:34;7.50;99.90
10149;DHT22;5115;50.920;6.376;2022-11-20T16:29:01;8.70;99.90
10149;DHT22;5115;50.920;6.376;2022-11-20T16:31:27;7.50;99.90
10149;DHT22;5115;50.920;6.376;2022-11-20T16:33:55;7.60;99.90
10149;DHT22;5115;50.920;6.376;2022-11-20T16:36:23;7.50;99.90
10149;DHT22;5115;50.920;6.376;2022-11-20T16:38:56;7.50;99.90
10149;DHT22;5115;50.920;6.376;2022-11-20T16:41:23;7.50;99.90
10149;DHT22;5115;50.920;6.376;2022-11-20T16:43:57;7.40;99.90
10149;DHT22;5115;50.920;6.376;2022-11-20T16:46:25;7.50;99.90
10149;DHT22;5115;50.920;6.376;2022-11-20T16:49:00;9.70;99.90
10149;DHT22;5115;50.920;6.376;2022-11-20T16:51:27;7.60;99.90
10149;DHT22;5115;50.920;6.376;2022-11-20T16:53:54;7.60;99.90
10149;DHT22;5115;50.920;6.376;2022-11-20T16:56:22;7.80;99.90
10149;DHT22;5115;50.920;6.376;2022-11-20T16:58:48;7.70;99.90
10149;DHT22;5115;50.920;6.376;2022-11-20T17:01:17;7.70;99.90
10149;DHT22;5115;50.920;6.376;2022-11-20T17:03:45;8.70;99.90
10149;DHT22;5115;50.920;6.376;2022-11-20T17:06:20;7.80;99.90
10149;DHT22;5115;50.920;6.376;2022-11-20T17:08:47;7.80;99.90
10149;DHT22;5115;50.920;6.376;2022-11-20T17:11:15;7.90;99.90
10149;DHT22;5115;50.920;6.376;2022-11-20T17:13:41;7.90;99.90
10149;DHT22;5115;50.920;6.376;2022-11-20T17:16:12;10.50;99.90
10149;DHT22;5115;50.920;6.376;2022-11-20T17:18:39;7.80;99.90
10149;DHT22;5115;50.920;6.376;2022-11-20T17:21:05;8.00;99.90
10149;DHT22;5115;50.920;6.376;2022-11-20T17:23:33;8.00;99.90
10149;DHT22;5115;50.920;6.376;2022-11-20T17:26:05;8.10;99.90
10149;DHT22;5115;50.920;6.376;2022-11-20T17:28:31;8.10;99.90
10149;DHT22;5115;50.920;6.376;2022-11-20T17:31:02;8.20;99.90
10149;DHT22;5115;50.920;6.376;2022-11-20T17:33:28;8.20;99.90
10149;DHT22;5115;50.920;6.376;2022-11-20T17:35:54;8.20;99.90
10149;DHT22;5115;50.920;6.376;2022-11-20T17:38:20;8.20;99.90
10149;DHT22;5115;50.920;6.376;2022-11-20T17:40:46;8.30;99.90
10149;DHT22;5115;50.920;6.376;2022-11-20T17:43:12;7.60;99.90
10149;DHT22;5115;50.920;6.376;2022-11-20T17:45:37;8.40;99.90
10149;DHT22;5115;50.920;6.376;2022-11-20T17:48:03;9.60;99.90
10149;DHT22;5115;50.920;6.376;2022-11-20T17:52:54;8.50;99.90
10149;DHT22;5115;50.920;6.376;2022-11-20T17:55:20;8.50;99.90
10149;DHT22;5115;50.920;6.376;2022-11-20T17:57:46;11.10;99.90
10149;DHT22;5115;50.920;6.376;2022-11-20T18:00:18;10.50;99.90
10149;DHT22;5115;50.920;6.376;2022-11-20T18:02:44;9.80;99.90
10149;DHT22;5115;50.920;6.376;2022-11-20T18:05:10;8.70;99.90
10149;DHT22;5115;50.920;6.376;2022-11-20T18:07:36;8.60;99.90
10149;DHT22;5115;50.920;6.376;2022-11-20T18:10:03;8.70;99.90
10149;DHT22;5115;50.920;6.376;2022-11-20T18:14:55;8.70;99.90
10149;DHT22;5115;50.920;6.376;2022-11-20T18:17:21;8.70;99.90
10149;DHT22;5115;50.920;6.376;2022-11-20T18:19:47;8.70;99.90
10149;DHT22;5115;50.920;6.376;2022-11-20T18:22:16;8.70;99.90
10149;DHT22;5115;50.920;6.376;2022-11-20T18:24:41;9.80;99.90
10149;DHT22;5115;50.920;6.376;2022-11-20T18:27:13;8.70;99.90
10149;DHT22;5115;50.920;6.376;2022-11-20T18:32:05;8.70;99.90
10149;DHT22;5115;50.920;6.376;2022-11-20T18:34:30;8.80;99.90
10149;DHT22;5115;50.920;6.376;2022-11-20T18:36:56;8.80;99.90
10149;DHT22;5115;50.920;6.376;2022-11-20T18:39:22;8.70;99.90
10149;DHT22;5115;50.920;6.376;2022-11-20T18:41:49;8.80;99.90
10149;DHT22;5115;50.920;6.376;2022-11-20T18:44:33;8.80;99.90
10149;DHT22;5115;50.920;6.376;2022-11-20T18:47:22;8.80;99.90
10149;DHT22;5115;50.920;6.376;2022-11-20T18:49:50;10.90;99.90
10149;DHT22;5115;50.920;6.376;2022-11-20T18:52:22;8.90;99.90
10149;DHT22;5115;50.920;6.376;2022-11-20T18:54:48;9.90;99.90
10149;DHT22;5115;50.920;6.376;2022-11-20T18:57:16;10.10;99.90
10149;DHT22;5115;50.920;6.376;2022-11-20T18:59:42;8.90;99.90
10149;DHT22;5115;50.920;6.376;2022-11-20T19:02:10;8.90;99.90
10149;DHT22;5115;50.920;6.376;2022-11-20T19:07:02;8.90;99.90
10149;DHT22;5115;50.920;6.376;2022-11-20T19:09:27;10.90;99.90
10149;DHT22;5115;50.920;6.376;2022-11-20T19:11:54;9.00;99.90
10149;DHT22;5115;50.920;6.376;2022-11-20T19:14:19;8.90;99.90
10149;DHT22;5115;50.920;6.376;2022-11-20T19:16:45;9.00;99.90
10149;DHT22;5115;50.920;6.376;2022-11-20T19:19:11;9.00;99.90
10149;DHT22;5115;50.920;6.376;2022-11-20T19:21:36;9.00;99.90
10149;DHT22;5115;50.920;6.376;2022-11-20T19:24:03;10.60;99.90
10149;DHT22;5115;50.920;6.376;2022-11-20T19:26:29;9.00;99.90
10149;DHT22;5115;50.920;6.376;2022-11-20T19:28:55;9.90;99.90
10149;DHT22;5115;50.920;6.376;2022-11-20T19:31:22;8.90;99.90
10149;DHT22;5115;50.920;6.376;2022-11-20T19:33:53;9.90;99.90
10149;DHT22;5115;50.920;6.376;2022-11-20T19:36:26;8.90;99.90
10149;DHT22;5115;50.920;6.376;2022-11-20T19:38:52;8.90;99.90
10149;DHT22;5115;50.920;6.376;2022-11-20T19:41:21;8.90;99.90
10149;DHT22;5115;50.920;6.376;2022-11-20T19:43:54;8.90;99.90
10149;DHT22;5115;50.920;6.376;2022-11-20T19:46:19;8.90;99.90
10149;DHT22;5115;50.920;6.376;2022-11-20T19:48:46;8.90;99.90
10149;DHT22;5115;50.920;6.376;2022-11-20T19:51:16;8.90;99.90
10149;DHT22;5115;50.920;6.376;2022-11-20T19:53:42;8.90;99.90
10149;DHT22;5115;50.920;6.376;2022-11-20T19:56:08;8.90;99.90
10149;DHT22;5115;50.920;6.376;2022-11-20T19:58:34;8.90;99.90
10149;DHT22;5115;50.920;6.376;2022-11-20T20:01:30;8.90;99.90
10149;DHT22;5115;50.920;6.376;2022-11-20T20:03:57;8.90;99.90
10149;DHT22;5115;50.920;6.376;2022-11-20T20:06:27;10.20;99.90
10149;DHT22;5115;50.920;6.376;2022-11-20T20:09:01;8.80;99.90
10149;DHT22;5115;50.920;6.376;2022-11-20T20:11:29;8.70;99.90
10149;DHT22;5115;50.920;6.376;2022-11-20T20:13:55;9.10;99.90
10149;DHT22;5115;50.920;6.376;2022-11-20T20:16:25;10.50;99.90
10149;DHT22;5115;50.920;6.376;2022-11-20T20:18:55;8.70;99.90
10149;DHT22;5115;50.920;6.376;2022-11-20T20:23:52;8.70;99.90
10149;DHT22;5115;50.920;6.376;2022-11-20T20:26:18;8.70;99.90
10149;DHT22;5115;50.920;6.376;2022-11-20T20:28:44;8.60;99.90
10149;DHT22;5115;50.920;6.376;2022-11-20T20:31:12;8.70;99.90
10149;DHT22;5115;50.920;6.376;2022-11-20T20:33:39;8.50;99.90
10149;DHT22;5115;50.920;6.376;2022-11-20T20:36:05;8.50;99.90
10149;DHT22;5115;50.920;6.376;2022-11-20T20:38:32;8.50;99.90
10149;DHT22;5115;50.920;6.376;2022-11-20T20:40:57;8.40;99.90
10149;DHT22;5115;50.920;6.376;2022-11-20T20:43:23;8.40;99.90
10149;DHT22;5115;50.920;6.376;2022-11-20T20:45:49;8.40;99.90
10149;DHT22;5115;50.920;6.376;2022-11-20T20:48:19;8.40;99.90
10149;DHT22;5115;50.920;6.376;2022-11-20T20:50:56;8.40;99.90
10149;DHT22;5115;50.920;6.376;2022-11-20T20:53:22;7.00;99.90
10149;DHT22;5115;50.920;6.376;2022-11-20T20:56:01;8.40;99.90
10149;DHT22;5115;50.920;6.376;2022-11-20T20:58:28;8.20;99.90
10149;DHT22;5115;50.920;6.376;2022-11-20T21:00:59;8.20;99.90
10149;DHT22;5115;50.920;6.376;2022-11-20T21:03:25;8.20;99.90
10149;DHT22;5115;50.920;6.376;2022-11-20T21:05:55;8.10;99.90
10149;DHT22;5115;50.920;6.376;2022-11-20T21:08:21;8.10;99.90
10149;DHT22;5115;50.920;6.376;2022-11-20T21:10:49;8.10;99.90
10149;DHT22;5115;50.920;6.376;2022-11-20T21:13:14;8.30;99.90
10149;DHT22;5115;50.920;6.376;2022-11-20T21:15:40;8.10;99.90
10149;DHT22;5115;50.920;6.376;2022-11-20T21:18:06;8.00;99.90
10149;DHT22;5115;50.920;6.376;2022-11-20T21:20:32;8.00;99.90
10149;DHT22;5115;50.920;6.376;2022-11-20T21:23:16;8.10;99.90
10149;DHT22;5115;50.920;6.376;2022-11-20T21:25:41;8.10;99.90
10149;DHT22;5115;50.920;6.376;2022-11-20T21:28:07;8.20;99.90
10149;DHT22;5115;50.920;6.376;2022-11-20T21:30:33;9.00;99.90
10149;DHT22;5115;50.920;6.376;2022-11-20T21:32:59;8.20;99.90
10149;DHT22;5115;50.920;6.376;2022-11-20T21:35:25;8.10;99.90